Time;durP1;ratioP1;P1;durP2;ratioP2;P2;SDS_P1;SDS_P2;PMS_P1;PMS_P2;Temp;Humidity;BMP_temperature;BMP_pressure;BME280_temperature;BME280_humidity;BME280_pressure;Samples;Min_cycle;Max_cycle;Signal;HPM_P1;HPM_P2
2024/03/26 00:00:22;;;;;;;;;;;;;;;;;;1044690;28;19909;-75
2024/03/26 00:00:53;;;;;;;;;;;;;;;;;;1041135;28;20288;-75
2024/03/26 00:01:23;;;;;;;;;;;;;;;;;;1044820;28;19916;-75
2024/03/26 00:01:53;;;;;;;;;;;;;;;;;;1045061;28;19951;-76
2024/03/26 00:02:23;;;;;;;;;;;;;;;;;;1047142;28;19913;-76
2024/03/26 00:02:54;;;;;;;;;;;;;;;;;;1047522;28;19912;-76
2024/03/26 00:03:24;;;;;;;;;;;;;;;;;;1045961;28;20280;-76
2024/03/26 00:03:54;;;;;;;;;;;;;;;;;;1042312;28;19948;-76
2024/03/26 00:04:25;;;;;;;;;;;;;;;;;;1046778;28;20413;-76
2024/03/26 00:04:55;;;;;;;;;;;;;;;;;;1047213;28;20075;-75
2024/03/26 00:05:25;;;;;;;;;;;;;;;;;;1046902;28;19908;-75
2024/03/26 00:05:56;;;;;;;;;;;;;;;;;;1043168;28;20335;-76
2024/03/26 00:06:27;;;;;;;;;;;;;;;;;;1042656;28;19909;-75
2024/03/26 00:06:58;;;;;;;;;;;;;;;;;;1043188;28;19924;-76
2024/03/26 00:07:28;;;;;;;;;;;;;;;;;;1042970;28;20031;-74
2024/03/26 00:07:58;;;;;;;;;;;;;;;;;;1044152;28;20407;-74
2024/03/26 00:08:29;;;;;;;;;;;;;;;;;;1040724;28;19914;-76
2024/03/26 00:08:59;;;;;;;;;;;;;;;;;;1045020;28;19912;-76
2024/03/26 00:09:30;;;;;;;;;;;;;;;;;;1044842;28;19915;-74
2024/03/26 00:10:00;;;;;;;;;;;;;;;;;;1047472;28;19908;-76
2024/03/26 00:10:31;;;;;;;;;;;;;;;;;;1047115;28;19908;-75
2024/03/26 00:11:01;;;;;;;;;;;;;;;;;;1046907;28;19915;-77
2024/03/26 00:11:32;;;;;;;;;;;;;;;;;;1046948;28;20424;-75
2024/03/26 00:12:02;;;;;;;;;;;;;;;;;;1047245;28;19908;-76
2024/03/26 00:12:33;;;;;;;;;;;;;;;;;;1048318;28;20000;-77
2024/03/26 00:13:03;;;;;;;;;;;;;;;;;;1047465;28;19967;-75
2024/03/26 00:13:34;;;;;;;;;;;;;;;;;;1047034;28;19908;-75
2024/03/26 00:14:04;;;;;;;;;;;;;;;;;;1043859;28;19943;-75
2024/03/26 00:14:35;;;;;;;;;;;;;;;;;;1042475;28;20008;-74
2024/03/26 00:15:05;;;;;;;;;;;;;;;;;;1042988;28;19908;-77
2024/03/26 00:15:35;;;;;;;;;;;;;;;;;;1040974;28;19913;-75
2024/03/26 00:16:05;;;;;;;;;;;;;;;;;;1044289;28;19952;-78
2024/03/26 00:16:36;;;;;;;;;;;;;;;;;;1049158;28;19979;-76
2024/03/26 00:17:06;;;;;;;;;;;;;;;;;;1045103;28;20419;-74
2024/03/26 00:17:36;;;;;;;;;;;;;;;;;;1048216;28;20339;-75
2024/03/26 00:18:06;;;;;;;;;;;;;;;;;;1043932;28;19909;-75
2024/03/26 00:18:37;;;;;;;;;;;;;;;;;;1042553;28;19908;-76
2024/03/26 00:19:07;;;;;;;;;;;;;;;;;;1047100;28;19960;-76
2024/03/26 00:19:37;;;;;;;;;;;;;;;;;;1044427;28;20422;-77
2024/03/26 00:20:08;;;;;;;;;;;;;;;;;;1047244;28;19974;-75
2024/03/26 00:20:43;;;;;;;;;;;;;;;;;;1044930;28;19908;-76
2024/03/26 00:21:13;;;;;;;;;;;;;;;;;;1042999;28;19909;-74
2024/03/26 00:21:43;;;;;;;;;;;;;;;;;;1041921;28;19916;-74
2024/03/26 00:22:13;;;;;;;;;;;;;;;;;;1043714;28;19908;-76
2024/03/26 00:22:44;;;;;;;;;;;;;;;;;;1047022;28;20337;-75
2024/03/26 00:23:16;;;;;;;;;;;;;;;;;;1046521;28;19939;-76
2024/03/26 00:23:46;;;;;;;;;;;;;;;;;;1051887;28;19908;-75
2024/03/26 00:24:17;;;;;;;;;;;;;;;;;;1046442;28;19908;-74
2024/03/26 00:24:47;;;;;;;;;;;;;;;;;;1044599;28;19913;-76
2024/03/26 00:25:17;;;;;;;;;;;;;;;;;;1046835;28;19970;-75
2024/03/26 00:25:48;;;;;;;;;;;;;;;;;;1046924;28;19909;-75
2024/03/26 00:26:19;;;;;;;;;;;;;;;;;;1050031;28;19917;-76
2024/03/26 00:26:50;;;;;;;;;;;;;;;;;;1051477;28;19915;-75
2024/03/26 00:27:20;;;;;;;;;;;;;;;;;;1047219;28;20315;-75
2024/03/26 00:27:50;;;;;;;;;;;;;;;;;;1050442;28;19908;-77
2024/03/26 00:28:20;;;;;;;;;;;;;;;;;;1046909;28;19999;-75
2024/03/26 00:28:51;;;;;;;;;;;;;;;;;;1051168;28;20007;-74
2024/03/26 00:29:21;;;;;;;;;;;;;;;;;;1046831;28;20039;-75
2024/03/26 00:29:51;;;;;;;;;;;;;;;;;;1045989;28;20248;-76
2024/03/26 00:30:22;;;;;;;;;;;;;;;;;;1047083;28;19909;-76
2024/03/26 00:30:52;;;;;;;;;;;;;;;;;;1043425;28;19916;-75
2024/03/26 00:31:22;;;;;;;;;;;;;;;;;;1042533;28;19909;-76
2024/03/26 00:31:53;;;;;;;;;;;;;;;;;;1047774;28;19909;-75
2024/03/26 00:32:23;;;;;;;;;;;;;;;;;;1046681;28;19931;-76
2024/03/26 00:32:54;;;;;;;;;;;;;;;;;;1047616;28;19909;-75
2024/03/26 00:33:25;;;;;;;;;;;;;;;;;;1047461;28;19915;-76
2024/03/26 00:33:55;;;;;;;;;;;;;;;;;;1043328;28;20451;-76
2024/03/26 00:34:25;;;;;;;;;;;;;;;;;;1043047;28;19909;-76
2024/03/26 00:34:56;;;;;;;;;;;;;;;;;;1041103;28;19920;-75
2024/03/26 00:35:26;;;;;;;;;;;;;;;;;;1036457;28;19917;-76
2024/03/26 00:35:57;;;;;;;;;;;;;;;;;;1040927;28;19949;-76
2024/03/26 00:36:27;;;;;;;;;;;;;;;;;;1043840;28;19991;-76
2024/03/26 00:36:57;;;;;;;;;;;;;;;;;;1046904;28;19917;-75
2024/03/26 00:37:28;;;;;;;;;;;;;;;;;;1042722;28;20003;-75
2024/03/26 00:37:58;;;;;;;;;;;;;;;;;;1047415;28;19919;-74
2024/03/26 00:38:28;;;;;;;;;;;;;;;;;;1046245;28;19908;-76
2024/03/26 00:38:59;;;;;;;;;;;;;;;;;;1046877;28;19912;-75
2024/03/26 00:39:29;;;;;;;;;;;;;;;;;;1047898;28;19919;-76
2024/03/26 00:39:59;;;;;;;;;;;;;;;;;;1049541;28;19912;-76
2024/03/26 00:40:29;;;;;;;;;;;;;;;;;;1046887;28;19909;-75
2024/03/26 00:41:00;;;;;;;;;;;;;;;;;;1044545;28;19916;-75
2024/03/26 00:41:30;;;;;;;;;;;;;;;;;;1044647;28;19915;-76
2024/03/26 00:42:01;;;;;;;;;;;;;;;;;;1045849;28;19908;-76
2024/03/26 00:42:31;;;;;;;;;;;;;;;;;;1047944;28;19908;-75
2024/03/26 00:43:01;;;;;;;;;;;;;;;;;;1047378;28;20326;-76
2024/03/26 00:43:31;;;;;;;;;;;;;;;;;;1042461;28;19909;-75
2024/03/26 00:44:02;;;;;;;;;;;;;;;;;;1046956;28;20271;-76
2024/03/26 00:44:32;;;;;;;;;;;;;;;;;;1048338;28;19970;-77
2024/03/26 00:45:02;;;;;;;;;;;;;;;;;;1048335;28;19908;-75
2024/03/26 00:45:33;;;;;;;;;;;;;;;;;;1049451;28;19908;-75
2024/03/26 00:46:03;;;;;;;;;;;;;;;;;;1042675;28;19908;-75
2024/03/26 00:46:34;;;;;;;;;;;;;;;;;;1043310;28;19936;-75
2024/03/26 00:47:05;;;;;;;;;;;;;;;;;;1043250;28;20050;-76
2024/03/26 00:47:36;;;;;;;;;;;;;;;;;;1047057;28;19908;-74
2024/03/26 00:48:06;;;;;;;;;;;;;;;;;;1047532;28;19967;-74
2024/03/26 00:48:36;;;;;;;;;;;;;;;;;;1046664;28;20003;-75
2024/03/26 00:49:07;;;;;;;;;;;;;;;;;;1047955;28;20415;-76
2024/03/26 00:49:37;;;;;;;;;;;;;;;;;;1047224;28;19958;-76
2024/03/26 00:50:08;;;;;;;;;;;;;;;;;;1045965;28;20007;-74
2024/03/26 00:50:38;;;;;;;;;;;;;;;;;;1046936;28;19909;-75
2024/03/26 00:51:08;;;;;;;;;;;;;;;;;;1046619;28;20002;-74
2024/03/26 00:51:44;;;;;;;;;;;;;;;;;;1039220;28;19944;-75
2024/03/26 00:52:14;;;;;;;;;;;;;;;;;;1038801;28;19941;-75
2024/03/26 00:52:45;;;;;;;;;;;;;;;;;;1038663;28;19909;-75
2024/03/26 00:53:15;;;;;;;;;;;;;;;;;;1041297;28;20044;-76
2024/03/26 00:53:45;;;;;;;;;;;;;;;;;;1042534;28;20469;-75
2024/03/26 00:54:16;;;;;;;;;;;;;;;;;;1047926;28;19995;-74
2024/03/26 00:54:46;;;;;;;;;;;;;;;;;;1045533;28;19913;-76
2024/03/26 00:55:16;;;;;;;;;;;;;;;;;;1048660;28;20433;-74
2024/03/26 00:55:46;;;;;;;;;;;;;;;;;;1048014;28;19908;-74
2024/03/26 00:56:17;;;;;;;;;;;;;;;;;;1044512;28;19967;-75
2024/03/26 00:56:47;;;;;;;;;;;;;;;;;;1048922;28;19908;-75
2024/03/26 00:57:17;;;;;;;;;;;;;;;;;;1048077;28;19908;-76
2024/03/26 00:57:51;;;;;;;;;;;;;;;;;;1046854;28;21126;-74
2024/03/26 00:58:21;;;;;;;;;;;;;;;;;;1045255;28;19912;-76
2024/03/26 00:58:51;;;;;;;;;;;;;;;;;;1041989;28;20003;-75
2024/03/26 00:59:22;;;;;;;;;;;;;;;;;;1042975;28;19954;-75
2024/03/26 00:59:52;;;;;;;;;;;;;;;;;;1042738;28;19975;-76
2024/03/26 01:00:23;;;;;;;;;;;;;;;;;;1039101;28;19908;-76
2024/03/26 01:00:53;;;;;;;;;;;;;;;;;;1044789;28;19971;-76
2024/03/26 01:01:23;;;;;;;;;;;;;;;;;;1044521;28;19916;-75
2024/03/26 01:01:53;;;;;;;;;;;;;;;;;;1049084;28;20314;-77
2024/03/26 01:02:24;;;;;;;;;;;;;;;;;;1047227;28;19919;-76
2024/03/26 01:02:55;;;;;;;;;;;;;;;;;;1046190;28;19923;-76
2024/03/26 01:03:25;;;;;;;;;;;;;;;;;;1046963;28;19916;-76
2024/03/26 01:03:57;;;;;;;;;;;;;;;;;;1047301;28;19909;-76
2024/03/26 01:04:28;;;;;;;;;;;;;;;;;;1041441;28;19916;-76
2024/03/26 01:04:58;;;;;;;;;;;;;;;;;;1042010;28;20008;-76
2024/03/26 01:05:28;;;;;;;;;;;;;;;;;;1039429;28;20004;-76
2024/03/26 01:05:58;;;;;;;;;;;;;;;;;;1040525;28;19921;-76
2024/03/26 01:06:29;;;;;;;;;;;;;;;;;;1045333;28;19962;-76
2024/03/26 01:06:59;;;;;;;;;;;;;;;;;;1044689;28;20046;-76
2024/03/26 01:07:30;;;;;;;;;;;;;;;;;;1050953;28;19915;-76
2024/03/26 01:08:00;;;;;;;;;;;;;;;;;;1046446;28;19992;-76
2024/03/26 01:08:31;;;;;;;;;;;;;;;;;;1050370;28;19908;-76
2024/03/26 01:09:01;;;;;;;;;;;;;;;;;;1046238;28;20234;-76
2024/03/26 01:09:31;;;;;;;;;;;;;;;;;;1046481;28;19991;-76
2024/03/26 01:10:02;;;;;;;;;;;;;;;;;;1046534;28;19913;-76
2024/03/26 01:10:32;;;;;;;;;;;;;;;;;;1045594;28;19908;-77
2024/03/26 01:11:02;;;;;;;;;;;;;;;;;;1047360;28;20041;-76
2024/03/26 01:11:32;;;;;;;;;;;;;;;;;;1045534;28;20451;-76
2024/03/26 01:12:03;;;;;;;;;;;;;;;;;;1045855;28;19959;-76
2024/03/26 01:12:33;;;;;;;;;;;;;;;;;;1047502;28;19922;-77
2024/03/26 01:13:04;;;;;;;;;;;;;;;;;;1046090;28;19958;-77
2024/03/26 01:13:34;;;;;;;;;;;;;;;;;;1047583;28;19908;-76
2024/03/26 01:14:04;;;;;;;;;;;;;;;;;;1046731;28;19908;-77
2024/03/26 01:14:34;;;;;;;;;;;;;;;;;;1046611;28;19956;-77
2024/03/26 01:15:05;;;;;;;;;;;;;;;;;;1047195;28;20011;-77
2024/03/26 01:15:35;;;;;;;;;;;;;;;;;;1044747;28;19913;-77
2024/03/26 01:16:05;;;;;;;;;;;;;;;;;;1045185;28;20432;-76
2024/03/26 01:16:36;;;;;;;;;;;;;;;;;;1044820;28;19912;-76
2024/03/26 01:17:06;;;;;;;;;;;;;;;;;;1040477;28;20565;-76
2024/03/26 01:17:37;;;;;;;;;;;;;;;;;;1040044;28;19992;-77
2024/03/26 01:18:07;;;;;;;;;;;;;;;;;;1037639;28;19941;-77
2024/03/26 01:18:38;;;;;;;;;;;;;;;;;;1042984;28;19932;-77
2024/03/26 01:19:08;;;;;;;;;;;;;;;;;;1045015;28;19913;-77
2024/03/26 01:19:38;;;;;;;;;;;;;;;;;;1044523;28;19920;-77
2024/03/26 01:20:09;;;;;;;;;;;;;;;;;;1042280;28;19917;-77
2024/03/26 01:20:40;;;;;;;;;;;;;;;;;;1042001;28;20004;-77
2024/03/26 01:21:10;;;;;;;;;;;;;;;;;;1044800;28;19916;-77
2024/03/26 01:21:41;;;;;;;;;;;;;;;;;;1049256;28;19919;-77
2024/03/26 01:22:11;;;;;;;;;;;;;;;;;;1049288;28;19908;-77
2024/03/26 01:22:42;;;;;;;;;;;;;;;;;;1048798;28;19915;-77
2024/03/26 01:23:12;;;;;;;;;;;;;;;;;;1049346;28;20213;-77
2024/03/26 01:23:43;;;;;;;;;;;;;;;;;;1049563;28;20299;-77
2024/03/26 01:24:13;;;;;;;;;;;;;;;;;;1049225;28;19979;-77
2024/03/26 01:24:44;;;;;;;;;;;;;;;;;;1049788;28;19912;-76
2024/03/26 01:25:14;;;;;;;;;;;;;;;;;;1047333;28;19987;-77
2024/03/26 01:25:45;;;;;;;;;;;;;;;;;;1046933;28;20486;-77
2024/03/26 01:26:15;;;;;;;;;;;;;;;;;;1048327;28;19908;-76
2024/03/26 01:26:45;;;;;;;;;;;;;;;;;;1047265;28;20233;-77
2024/03/26 01:27:16;;;;;;;;;;;;;;;;;;1049392;28;20371;-77
2024/03/26 01:27:46;;;;;;;;;;;;;;;;;;1042024;28;19912;-77
2024/03/26 01:28:16;;;;;;;;;;;;;;;;;;1043173;28;20376;-77
2024/03/26 01:28:47;;;;;;;;;;;;;;;;;;1041747;28;20011;-77
2024/03/26 01:29:17;;;;;;;;;;;;;;;;;;1041671;28;19940;-77
2024/03/26 01:29:47;;;;;;;;;;;;;;;;;;1046025;28;19916;-77
2024/03/26 01:30:17;;;;;;;;;;;;;;;;;;1046330;28;20335;-76
2024/03/26 01:30:48;;;;;;;;;;;;;;;;;;1053874;28;19908;-76
2024/03/26 01:31:18;;;;;;;;;;;;;;;;;;1053193;28;19912;-77
2024/03/26 01:31:49;;;;;;;;;;;;;;;;;;1046548;28;19968;-77
2024/03/26 01:32:20;;;;;;;;;;;;;;;;;;1045527;28;19920;-77
2024/03/26 01:32:50;;;;;;;;;;;;;;;;;;1046703;28;19920;-77
2024/03/26 01:33:20;;;;;;;;;;;;;;;;;;1047485;28;19909;-78
2024/03/26 01:33:51;;;;;;;;;;;;;;;;;;1046279;28;19916;-77
2024/03/26 01:34:21;;;;;;;;;;;;;;;;;;1049554;28;19919;-77
2024/03/26 01:34:51;;;;;;;;;;;;;;;;;;1045096;28;19915;-78
2024/03/26 01:35:24;;;;;;;;;;;;;;;;;;1042229;28;19996;-77
2024/03/26 01:35:54;;;;;;;;;;;;;;;;;;1043067;28;20007;-77
2024/03/26 01:36:25;;;;;;;;;;;;;;;;;;1046124;28;20035;-78
2024/03/26 01:36:59;;;;;;;;;;;;;;;;;;1049546;28;21017;-77
2024/03/26 01:37:31;;;;;;;;;;;;;;;;;;1047008;28;19916;-78
2024/03/26 01:38:02;;;;;;;;;;;;;;;;;;1051078;28;19990;-79
2024/03/26 01:38:32;;;;;;;;;;;;;;;;;;1048653;28;20406;-79
2024/03/26 01:39:04;;;;;;;;;;;;;;;;;;1047433;28;19935;-77
2024/03/26 01:39:34;;;;;;;;;;;;;;;;;;1046330;28;20059;-77
2024/03/26 01:40:06;;;;;;;;;;;;;;;;;;1042985;28;20012;-77
2024/03/26 01:40:37;;;;;;;;;;;;;;;;;;1042747;28;19908;-79
2024/03/26 01:41:07;;;;;;;;;;;;;;;;;;1042956;28;19909;-78
2024/03/26 01:41:38;;;;;;;;;;;;;;;;;;1040358;28;19909;-77
2024/03/26 01:42:09;;;;;;;;;;;;;;;;;;1040557;28;20455;-77
2024/03/26 01:42:39;;;;;;;;;;;;;;;;;;1042570;28;19944;-77
2024/03/26 01:43:10;;;;;;;;;;;;;;;;;;1050745;28;19908;-78
2024/03/26 01:43:43;;;;;;;;;;;;;;;;;;1052269;28;19908;-78
2024/03/26 01:44:14;;;;;;;;;;;;;;;;;;1052466;28;20000;-79
2024/03/26 01:44:44;;;;;;;;;;;;;;;;;;1047947;28;19908;-79
2024/03/26 01:45:14;;;;;;;;;;;;;;;;;;1050226;28;19944;-79
2024/03/26 01:45:45;;;;;;;;;;;;;;;;;;1047795;28;19912;-79
2024/03/26 01:46:15;;;;;;;;;;;;;;;;;;1048438;28;19999;-79
2024/03/26 01:46:46;;;;;;;;;;;;;;;;;;1047104;28;20426;-79
2024/03/26 01:47:17;;;;;;;;;;;;;;;;;;1043513;28;19932;-79
2024/03/26 01:47:47;;;;;;;;;;;;;;;;;;1045850;28;19908;-78
2024/03/26 01:48:17;;;;;;;;;;;;;;;;;;1049245;28;19919;-80
2024/03/26 01:48:49;;;;;;;;;;;;;;;;;;1045330;28;20406;-79
2024/03/26 01:49:21;;;;;;;;;;;;;;;;;;1047598;28;19915;-78
2024/03/26 01:49:51;;;;;;;;;;;;;;;;;;1046297;28;19916;-78
2024/03/26 01:50:25;;;;;;;;;;;;;;;;;;1042900;28;19915;-78
2024/03/26 01:50:55;;;;;;;;;;;;;;;;;;1041271;28;20365;-79
2024/03/26 01:51:27;;;;;;;;;;;;;;;;;;1041573;28;19996;-79
2024/03/26 01:51:57;;;;;;;;;;;;;;;;;;1042493;28;20032;-79
2024/03/26 01:52:28;;;;;;;;;;;;;;;;;;1046867;28;19909;-79
2024/03/26 01:52:58;;;;;;;;;;;;;;;;;;1049718;28;19915;-78
2024/03/26 01:53:29;;;;;;;;;;;;;;;;;;1047254;28;19912;-78
2024/03/26 01:54:00;;;;;;;;;;;;;;;;;;1047412;28;19908;-78
2024/03/26 01:54:30;;;;;;;;;;;;;;;;;;1047158;28;19936;-79
2024/03/26 01:55:02;;;;;;;;;;;;;;;;;;1045980;28;20344;-78
2024/03/26 01:55:33;;;;;;;;;;;;;;;;;;1041872;28;19915;-78
2024/03/26 01:56:03;;;;;;;;;;;;;;;;;;1044179;28;19916;-78
2024/03/26 01:56:34;;;;;;;;;;;;;;;;;;1049101;28;19912;-79
2024/03/26 01:57:04;;;;;;;;;;;;;;;;;;1046052;28;20303;-79
2024/03/26 01:57:34;;;;;;;;;;;;;;;;;;1050716;28;19914;-79
2024/03/26 01:58:05;;;;;;;;;;;;;;;;;;1047532;28;19913;-77
2024/03/26 01:58:35;;;;;;;;;;;;;;;;;;1045447;28;20067;-78
2024/03/26 01:59:06;;;;;;;;;;;;;;;;;;1047094;28;19917;-79
2024/03/26 01:59:37;;;;;;;;;;;;;;;;;;1046278;28;20387;-79
2024/03/26 02:00:07;;;;;;;;;;;;;;;;;;1048734;28;19998;-79
2024/03/26 02:00:38;;;;;;;;;;;;;;;;;;1046058;28;21255;-79
2024/03/26 02:01:09;;;;;;;;;;;;;;;;;;1049965;28;20377;-78
2024/03/26 02:01:39;;;;;;;;;;;;;;;;;;1051388;28;20308;-79
2024/03/26 02:02:09;;;;;;;;;;;;;;;;;;1051422;28;19908;-79
2024/03/26 02:02:40;;;;;;;;;;;;;;;;;;1046832;28;20007;-78
2024/03/26 02:03:10;;;;;;;;;;;;;;;;;;1046171;28;19908;-78
2024/03/26 02:03:40;;;;;;;;;;;;;;;;;;1045164;28;20018;-79
2024/03/26 02:04:11;;;;;;;;;;;;;;;;;;1044820;28;19916;-78
2024/03/26 02:04:41;;;;;;;;;;;;;;;;;;1041634;28;20400;-79
2024/03/26 02:05:12;;;;;;;;;;;;;;;;;;1041796;28;19916;-80
2024/03/26 02:05:42;;;;;;;;;;;;;;;;;;1042480;28;20410;-79
2024/03/26 02:06:13;;;;;;;;;;;;;;;;;;1038178;28;20284;-79
2024/03/26 02:06:45;;;;;;;;;;;;;;;;;;1045507;28;19939;-79
2024/03/26 02:07:15;;;;;;;;;;;;;;;;;;1046331;28;19912;-79
2024/03/26 02:07:45;;;;;;;;;;;;;;;;;;1046817;28;19912;-78
2024/03/26 02:08:16;;;;;;;;;;;;;;;;;;1050636;28;19934;-78
2024/03/26 02:08:47;;;;;;;;;;;;;;;;;;1051755;28;20335;-79
2024/03/26 02:09:17;;;;;;;;;;;;;;;;;;1049050;28;19917;-79
2024/03/26 02:09:49;;;;;;;;;;;;;;;;;;1047761;28;19958;-80
2024/03/26 02:10:24;;;;;;;;;;;;;;;;;;1044761;28;19952;-79
2024/03/26 02:10:54;;;;;;;;;;;;;;;;;;1041024;28;20413;-78
2024/03/26 02:11:25;;;;;;;;;;;;;;;;;;1046877;28;19912;-78
2024/03/26 02:11:56;;;;;;;;;;;;;;;;;;1049267;28;20387;-79
2024/03/26 02:12:26;;;;;;;;;;;;;;;;;;1047780;28;19976;-78
2024/03/26 02:12:57;;;;;;;;;;;;;;;;;;1050632;28;19913;-78
2024/03/26 02:13:58;;;;;;;;;;;;;;;;;;1068223;23;19943;-78
2024/03/26 02:14:29;;;;;;;;;;;;;;;;;;1048192;28;19916;-79
2024/03/26 02:14:59;;;;;;;;;;;;;;;;;;1048337;28;19912;-78
2024/03/26 02:15:30;;;;;;;;;;;;;;;;;;1049040;28;19931;-79
2024/03/26 02:16:00;;;;;;;;;;;;;;;;;;1084070;23;19922;-26
2024/03/26 02:16:30;;;;;;;;;;;;;;;;;;1039247;28;19920;-25
2024/03/26 02:17:03;;;;;;;;;;;;;;;;;;1046743;28;19912;-24
2024/03/26 02:17:33;;;;;;;;;;;;;;;;;;1047631;28;19915;-25
2024/03/26 02:18:03;;;;;;;;;;;;;;;;;;1048051;28;20270;-24
2024/03/26 02:18:34;;;;;;;;;;;;;;;;;;1049036;28;20360;-25
2024/03/26 02:19:04;;;;;;;;;;;;;;;;;;1050164;28;19912;-23
2024/03/26 02:19:35;;;;;;;;;;;;;;;;;;1047884;28;19924;-21
2024/03/26 02:20:07;;;;;;;;;;;;;;;;;;1044406;28;19916;-22
2024/03/26 02:20:38;;;;;;;;;;;;;;;;;;1044435;28;19908;-25
2024/03/26 02:21:08;;;;;;;;;;;;;;;;;;1043186;28;19912;-24
2024/03/26 02:21:38;;;;;;;;;;;;;;;;;;1042396;28;19928;-24
2024/03/26 02:22:09;;;;;;;;;;;;;;;;;;1042893;28;20280;-23
2024/03/26 02:22:40;;;;;;;;;;;;;;;;;;1044367;28;20031;-23
2024/03/26 02:23:10;;;;;;;;;;;;;;;;;;1041675;28;20378;-24
2024/03/26 02:23:41;;;;;;;;;;;;;;;;;;1042319;28;20010;-24
2024/03/26 02:24:11;;;;;;;;;;;;;;;;;;1040718;28;19915;-24
2024/03/26 02:24:42;;;;;;;;;;;;;;;;;;1042150;28;19963;-25
2024/03/26 02:25:13;;;;;;;;;;;;;;;;;;1039179;28;19916;-23
2024/03/26 02:25:45;;;;;;;;;;;;;;;;;;1039408;28;19920;-25
2024/03/26 02:26:15;;;;;;;;;;;;;;;;;;1039248;28;19975;-25
2024/03/26 02:26:47;;;;;;;;;;;;;;;;;;1040335;28;19913;-25
2024/03/26 02:27:17;;;;;;;;;;;;;;;;;;1036850;28;19940;-23
2024/03/26 02:27:48;;;;;;;;;;;;;;;;;;1043594;28;19912;-23
2024/03/26 02:28:19;;;;;;;;;;;;;;;;;;1042962;28;19918;-24
2024/03/26 02:28:50;;;;;;;;;;;;;;;;;;1043804;28;19965;-24
2024/03/26 02:29:20;;;;;;;;;;;;;;;;;;1041914;28;19908;-24
2024/03/26 02:29:50;;;;;;;;;;;;;;;;;;1044582;28;20039;-24
2024/03/26 02:30:20;;;;;;;;;;;;;;;;;;1047497;28;19908;-26
2024/03/26 02:30:50;;;;;;;;;;;;;;;;;;1050341;28;20003;-23
2024/03/26 02:31:21;;;;;;;;;;;;;;;;;;1048195;28;19930;-25
2024/03/26 02:31:52;;;;;;;;;;;;;;;;;;1048893;28;19967;-23
2024/03/26 02:32:22;;;;;;;;;;;;;;;;;;1047653;28;20363;-24
2024/03/26 02:32:52;;;;;;;;;;;;;;;;;;1049247;28;19908;-24
2024/03/26 02:33:23;;;;;;;;;;;;;;;;;;1049318;28;19953;-25
2024/03/26 02:33:55;;;;;;;;;;;;;;;;;;1043704;28;20212;-26
2024/03/26 02:34:26;;;;;;;;;;;;;;;;;;1041000;28;20412;-24
2024/03/26 02:34:56;;;;;;;;;;;;;;;;;;1044324;28;19935;-24
2024/03/26 02:35:27;;;;;;;;;;;;;;;;;;1040230;28;19912;-26
2024/03/26 02:35:58;;;;;;;;;;;;;;;;;;1043499;28;19917;-23
2024/03/26 02:36:28;;;;;;;;;;;;;;;;;;1045641;28;19990;-24
2024/03/26 02:36:59;;;;;;;;;;;;;;;;;;1048448;28;19913;-25
2024/03/26 02:37:29;;;;;;;;;;;;;;;;;;1048323;28;19915;-22
2024/03/26 02:38:01;;;;;;;;;;;;;;;;;;1041662;28;20271;-21
2024/03/26 02:38:32;;;;;;;;;;;;;;;;;;1038984;28;20590;-22
2024/03/26 02:39:05;;;;;;;;;;;;;;;;;;1038734;28;19913;-24
2024/03/26 02:39:35;;;;;;;;;;;;;;;;;;1037211;28;19917;-23
2024/03/26 02:40:07;;;;;;;;;;;;;;;;;;1039128;28;20479;-21
2024/03/26 02:40:37;;;;;;;;;;;;;;;;;;1038732;28;19913;-23
2024/03/26 02:41:08;;;;;;;;;;;;;;;;;;1036049;28;19932;-24
2024/03/26 02:41:38;;;;;;;;;;;;;;;;;;1034017;28;19949;-22
2024/03/26 02:42:09;;;;;;;;;;;;;;;;;;1032257;28;19917;-24
2024/03/26 02:42:39;;;;;;;;;;;;;;;;;;1038016;28;19959;-24
2024/03/26 02:43:10;;;;;;;;;;;;;;;;;;1040817;28;19908;-24
2024/03/26 02:43:41;;;;;;;;;;;;;;;;;;1036082;28;20011;-23
2024/03/26 02:44:13;;;;;;;;;;;;;;;;;;1040930;28;19971;-22
2024/03/26 02:44:45;;;;;;;;;;;;;;;;;;1037726;28;20074;-23
2024/03/26 02:45:16;;;;;;;;;;;;;;;;;;1030868;28;19948;-23
2024/03/26 02:45:46;;;;;;;;;;;;;;;;;;1036519;28;19936;-25
2024/03/26 02:46:19;;;;;;;;;;;;;;;;;;1034909;28;19918;-25
2024/03/26 02:46:52;;;;;;;;;;;;;;;;;;1032391;28;19924;-24
2024/03/26 02:47:36;;;;;;;;;;;;;;;;;;1040214;28;20268;-25
2024/03/26 02:48:14;;;;;;;;;;;;;;;;;;1042932;28;20348;-24
2024/03/26 02:48:48;;;;;;;;;;;;;;;;;;1039624;28;19913;-25
2024/03/26 02:49:23;;;;;;;;;;;;;;;;;;1036714;28;19910;-23
2024/03/26 02:50:15;;;;;;;;;;;;;;;;;;1029351;28;19909;-23
2024/03/26 02:50:46;;;;;;;;;;;;;;;;;;1041208;28;19913;-25
2024/03/26 02:51:19;;;;;;;;;;;;;;;;;;1038176;28;20023;-25
2024/03/26 02:51:49;;;;;;;;;;;;;;;;;;1041041;28;19900;-24
2024/03/26 02:52:21;;;;;;;;;;;;;;;;;;1043510;28;20470;-24
2024/03/26 02:53:04;;;;;;;;;;;;;;;;;;1041376;28;19913;-25
2024/03/26 02:53:59;;;;;;;;;;;;;;;;;;1033563;28;19941;-25
2024/03/26 02:54:30;;;;;;;;;;;;;;;;;;1026367;28;19920;-24
2024/03/26 02:55:03;;;;;;;;;;;;;;;;;;1033711;28;19962;-23
2024/03/26 02:55:34;;;;;;;;;;;;;;;;;;1029454;28;19919;-24
2024/03/26 02:56:14;;;;;;;;;;;;;;;;;;1026024;28;20635;-24
2024/03/26 02:56:45;;;;;;;;;;;;;;;;;;1027978;28;20008;-25
2024/03/26 02:57:15;;;;;;;;;;;;;;;;;;1029765;28;19910;-25
2024/03/26 02:57:46;;;;;;;;;;;;;;;;;;1030766;28;20438;-25
2024/03/26 02:58:17;;;;;;;;;;;;;;;;;;1028010;28;20338;-24
2024/03/26 02:58:47;;;;;;;;;;;;;;;;;;1031018;28;19967;-25
2024/03/26 02:59:19;;;;;;;;;;;;;;;;;;1029313;28;19960;-25
2024/03/26 02:59:52;;;;;;;;;;;;;;;;;;1029007;28;19920;-24
2024/03/26 03:00:23;;;;;;;;;;;;;;;;;;1026719;28;20395;-26
2024/03/26 03:00:57;;;;;;;;;;;;;;;;;;1026847;28;19914;-23
2024/03/26 03:01:48;;;;;;;;;;;;;;;;;;1027348;28;19914;-23
2024/03/26 03:02:24;;;;;;;;;;;;;;;;;;1023656;28;19921;-24
2024/03/26 03:02:56;;;;;;;;;;;;;;;;;;1022074;28;19945;-25
2024/03/26 03:03:29;;;;;;;;;;;;;;;;;;1021207;28;20381;-24
2024/03/26 03:04:01;;;;;;;;;;;;;;;;;;1023921;28;19909;-25
2024/03/26 03:04:33;;;;;;;;;;;;;;;;;;1021495;28;20419;-22
2024/03/26 03:05:05;;;;;;;;;;;;;;;;;;1019198;28;20289;-23
2024/03/26 03:05:38;;;;;;;;;;;;;;;;;;1026271;28;19902;-22
2024/03/26 03:06:12;;;;;;;;;;;;;;;;;;1026715;28;19968;-23
2024/03/26 03:06:44;;;;;;;;;;;;;;;;;;1018917;28;20023;-25
2024/03/26 03:07:18;;;;;;;;;;;;;;;;;;1023028;28;19950;-24
2024/03/26 03:07:50;;;;;;;;;;;;;;;;;;1024277;28;19914;-22
2024/03/26 03:08:22;;;;;;;;;;;;;;;;;;1013127;28;19914;-25
2024/03/26 03:08:53;;;;;;;;;;;;;;;;;;1021272;28;20825;-25
2024/03/26 03:09:24;;;;;;;;;;;;;;;;;;1029361;28;19910;-24
2024/03/26 03:09:56;;;;;;;;;;;;;;;;;;1022273;28;19914;-25
2024/03/26 03:10:27;;;;;;;;;;;;;;;;;;1021506;28;19917;-24
2024/03/26 03:10:57;;;;;;;;;;;;;;;;;;1024919;28;19917;-26
2024/03/26 03:11:28;;;;;;;;;;;;;;;;;;1029184;28;20010;-23
2024/03/26 03:11:58;;;;;;;;;;;;;;;;;;1012365;28;19906;-25
2024/03/26 03:12:29;;;;;;;;;;;;;;;;;;1029000;28;19913;-24
2024/03/26 03:12:59;;;;;;;;;;;;;;;;;;1029416;28;20396;-22
2024/03/26 03:13:31;;;;;;;;;;;;;;;;;;1032114;28;19910;-24
2024/03/26 03:14:01;;;;;;;;;;;;;;;;;;1029208;28;19914;-23
2024/03/26 03:14:31;;;;;;;;;;;;;;;;;;1029868;28;19909;-25
2024/03/26 03:15:02;;;;;;;;;;;;;;;;;;1031699;28;19917;-21
2024/03/26 03:15:32;;;;;;;;;;;;;;;;;;1031456;28;19953;-21
2024/03/26 03:16:04;;;;;;;;;;;;;;;;;;1024771;28;20288;-24
2024/03/26 03:16:41;;;;;;;;;;;;;;;;;;1019862;28;19914;-24
2024/03/26 03:17:12;;;;;;;;;;;;;;;;;;1025227;28;20452;-24
2024/03/26 03:17:43;;;;;;;;;;;;;;;;;;1024354;28;20413;-22
2024/03/26 03:18:14;;;;;;;;;;;;;;;;;;1024780;28;20298;-23
2024/03/26 03:18:45;;;;;;;;;;;;;;;;;;1023698;28;20010;-24
2024/03/26 03:19:16;;;;;;;;;;;;;;;;;;1019717;28;20228;-22
2024/03/26 03:19:46;;;;;;;;;;;;;;;;;;1022967;28;19914;-22
2024/03/26 03:20:19;;;;;;;;;;;;;;;;;;1021551;28;19924;-23
2024/03/26 03:20:51;;;;;;;;;;;;;;;;;;1019118;29;19973;-25
2024/03/26 03:21:22;;;;;;;;;;;;;;;;;;1012856;28;19918;-24
2024/03/26 03:21:53;;;;;;;;;;;;;;;;;;1019883;28;20009;-22
2024/03/26 03:22:23;;;;;;;;;;;;;;;;;;1018871;28;19918;-23
2024/03/26 03:22:53;;;;;;;;;;;;;;;;;;1020306;28;19914;-23
2024/03/26 03:23:25;;;;;;;;;;;;;;;;;;1020285;28;20056;-21
2024/03/26 03:23:55;;;;;;;;;;;;;;;;;;1021168;28;19914;-24
2024/03/26 03:24:26;;;;;;;;;;;;;;;;;;1023924;28;19918;-21
2024/03/26 03:24:57;;;;;;;;;;;;;;;;;;1020071;28;19923;-23
2024/03/26 03:25:29;;;;;;;;;;;;;;;;;;1021411;28;19961;-24
2024/03/26 03:26:02;;;;;;;;;;;;;;;;;;1021684;28;19950;-24
2024/03/26 03:26:34;;;;;;;;;;;;;;;;;;1028208;28;19940;-24
2024/03/26 03:27:08;;;;;;;;;;;;;;;;;;1024111;28;19921;-23
2024/03/26 03:27:39;;;;;;;;;;;;;;;;;;1019844;28;19914;-24
2024/03/26 03:28:09;;;;;;;;;;;;;;;;;;1021711;28;19925;-24
2024/03/26 03:28:40;;;;;;;;;;;;;;;;;;1018329;28;19930;-25
2024/03/26 03:29:11;;;;;;;;;;;;;;;;;;1024323;28;19910;-25
2024/03/26 03:29:43;;;;;;;;;;;;;;;;;;1018725;28;20313;-23
2024/03/26 03:30:15;;;;;;;;;;;;;;;;;;1017791;28;20009;-23
2024/03/26 03:30:45;;;;;;;;;;;;;;;;;;1019014;28;20354;-23
2024/03/26 03:31:17;;;;;;;;;;;;;;;;;;1022753;28;19956;-25
2024/03/26 03:31:47;;;;;;;;;;;;;;;;;;1017857;28;19953;-25
2024/03/26 03:32:18;;;;;;;;;;;;;;;;;;1021015;28;19910;-24
2024/03/26 03:32:55;;;;;;;;;;;;;;;;;;1029078;28;19921;-25